sensor_id;sensor_type;location;lat;lon;timestamp;temperature;humidity
33699;DHT22;20032;52.436;13.312;2023-04-25T00:01:16;9.50;99.90
33699;DHT22;20032;52.436;13.312;2023-04-25T00:03:42;9.50;99.90
33699;DHT22;20032;52.436;13.312;2023-04-25T00:06:08;9.40;99.90
33699;DHT22;20032;52.436;13.312;2023-04-25T00:08:33;9.40;99.90
33699;DHT22;20032;52.436;13.312;2023-04-25T00:11:01;9.40;99.90
33699;DHT22;20032;52.436;13.312;2023-04-25T00:13:26;9.40;99.90
33699;DHT22;20032;52.436;13.312;2023-04-25T00:15:52;9.50;99.90
33699;DHT22;20032;52.436;13.312;2023-04-25T00:18:19;9.40;99.90
33699;DHT22;20032;52.436;13.312;2023-04-25T00:20:45;9.40;99.90
33699;DHT22;20032;52.436;13.312;2023-04-25T00:23:12;9.40;99.90
33699;DHT22;20032;52.436;13.312;2023-04-25T00:25:43;9.40;99.90
33699;DHT22;20032;52.436;13.312;2023-04-25T00:28:09;9.30;99.90
33699;DHT22;20032;52.436;13.312;2023-04-25T00:30:34;9.40;99.90
33699;DHT22;20032;52.436;13.312;2023-04-25T00:33:00;9.30;99.90
33699;DHT22;20032;52.436;13.312;2023-04-25T00:35:25;9.40;99.90
33699;DHT22;20032;52.436;13.312;2023-04-25T00:37:51;9.40;99.90
33699;DHT22;20032;52.436;13.312;2023-04-25T00:40:16;9.40;99.90
33699;DHT22;20032;52.436;13.312;2023-04-25T00:42:42;9.40;99.90
33699;DHT22;20032;52.436;13.312;2023-04-25T00:45:09;9.50;99.90
33699;DHT22;20032;52.436;13.312;2023-04-25T00:47:38;9.40;99.90
33699;DHT22;20032;52.436;13.312;2023-04-25T00:50:03;9.50;99.90
33699;DHT22;20032;52.436;13.312;2023-04-25T00:52:29;9.50;99.90
33699;DHT22;20032;52.436;13.312;2023-04-25T00:54:55;9.40;99.90
33699;DHT22;20032;52.436;13.312;2023-04-25T00:57:20;9.40;99.90
33699;DHT22;20032;52.436;13.312;2023-04-25T00:59:46;9.40;99.90
33699;DHT22;20032;52.436;13.312;2023-04-25T01:02:12;9.30;99.90
33699;DHT22;20032;52.436;13.312;2023-04-25T01:04:38;9.30;99.90
33699;DHT22;20032;52.436;13.312;2023-04-25T01:07:04;9.30;99.90
33699;DHT22;20032;52.436;13.312;2023-04-25T01:09:30;9.40;99.90
33699;DHT22;20032;52.436;13.312;2023-04-25T01:11:57;9.40;99.90
33699;DHT22;20032;52.436;13.312;2023-04-25T01:14:23;9.40;99.90
33699;DHT22;20032;52.436;13.312;2023-04-25T01:16:48;9.30;99.90
33699;DHT22;20032;52.436;13.312;2023-04-25T01:19:16;9.30;99.90
33699;DHT22;20032;52.436;13.312;2023-04-25T01:21:43;9.40;99.90
33699;DHT22;20032;52.436;13.312;2023-04-25T01:24:08;9.30;99.90
33699;DHT22;20032;52.436;13.312;2023-04-25T01:26:35;9.30;99.90
33699;DHT22;20032;52.436;13.312;2023-04-25T01:29:01;9.30;99.90
33699;DHT22;20032;52.436;13.312;2023-04-25T01:31:27;9.30;99.90
33699;DHT22;20032;52.436;13.312;2023-04-25T01:33:53;9.30;99.90
33699;DHT22;20032;52.436;13.312;2023-04-25T01:36:19;9.30;99.90
33699;DHT22;20032;52.436;13.312;2023-04-25T01:38:45;9.30;99.90
33699;DHT22;20032;52.436;13.312;2023-04-25T01:41:13;9.30;99.90
33699;DHT22;20032;52.436;13.312;2023-04-25T01:43:38;9.30;99.90
33699;DHT22;20032;52.436;13.312;2023-04-25T01:46:04;9.30;99.90
33699;DHT22;20032;52.436;13.312;2023-04-25T01:48:30;9.30;99.90
33699;DHT22;20032;52.436;13.312;2023-04-25T01:50:55;9.30;99.90
33699;DHT22;20032;52.436;13.312;2023-04-25T01:53:20;9.40;99.90
33699;DHT22;20032;52.436;13.312;2023-04-25T01:55:46;9.40;99.90
33699;DHT22;20032;52.436;13.312;2023-04-25T01:58:11;9.40;99.90
33699;DHT22;20032;52.436;13.312;2023-04-25T02:00:39;9.40;99.90
33699;DHT22;20032;52.436;13.312;2023-04-25T02:03:06;9.40;99.90
33699;DHT22;20032;52.436;13.312;2023-04-25T02:05:39;9.40;99.90
33699;DHT22;20032;52.436;13.312;2023-04-25T02:08:07;9.40;99.90
33699;DHT22;20032;52.436;13.312;2023-04-25T02:10:33;9.30;99.90
33699;DHT22;20032;52.436;13.312;2023-04-25T02:12:59;9.40;99.90
33699;DHT22;20032;52.436;13.312;2023-04-25T02:15:25;9.20;99.90
33699;DHT22;20032;52.436;13.312;2023-04-25T02:17:50;9.20;99.90
33699;DHT22;20032;52.436;13.312;2023-04-25T02:20:18;9.20;99.90
33699;DHT22;20032;52.436;13.312;2023-04-25T02:22:45;9.20;99.90
33699;DHT22;20032;52.436;13.312;2023-04-25T02:25:11;9.30;99.90
33699;DHT22;20032;52.436;13.312;2023-04-25T02:27:37;9.30;99.90
33699;DHT22;20032;52.436;13.312;2023-04-25T02:30:04;9.20;99.90
33699;DHT22;20032;52.436;13.312;2023-04-25T02:32:30;9.20;99.90
33699;DHT22;20032;52.436;13.312;2023-04-25T02:34:55;9.20;99.90
33699;DHT22;20032;52.436;13.312;2023-04-25T02:37:24;9.20;99.90
33699;DHT22;20032;52.436;13.312;2023-04-25T02:39:50;9.20;99.90
33699;DHT22;20032;52.436;13.312;2023-04-25T02:42:15;9.10;99.90
33699;DHT22;20032;52.436;13.312;2023-04-25T02:44:41;9.10;99.90
33699;DHT22;20032;52.436;13.312;2023-04-25T02:47:06;9.20;99.90
33699;DHT22;20032;52.436;13.312;2023-04-25T02:49:32;9.10;99.90
33699;DHT22;20032;52.436;13.312;2023-04-25T02:51:57;9.20;99.90
33699;DHT22;20032;52.436;13.312;2023-04-25T02:54:23;9.10;99.90
33699;DHT22;20032;52.436;13.312;2023-04-25T02:56:48;9.10;99.90
33699;DHT22;20032;52.436;13.312;2023-04-25T02:59:14;9.10;99.90
33699;DHT22;20032;52.436;13.312;2023-04-25T03:01:39;9.10;99.90
33699;DHT22;20032;52.436;13.312;2023-04-25T03:04:05;9.00;99.90
33699;DHT22;20032;52.436;13.312;2023-04-25T03:06:30;9.00;99.90
33699;DHT22;20032;52.436;13.312;2023-04-25T03:08:56;8.90;99.90
33699;DHT22;20032;52.436;13.312;2023-04-25T03:11:21;9.00;99.90
33699;DHT22;20032;52.436;13.312;2023-04-25T03:13:47;9.00;99.90
33699;DHT22;20032;52.436;13.312;2023-04-25T03:16:12;9.00;99.90
33699;DHT22;20032;52.436;13.312;2023-04-25T03:18:38;9.00;99.90
33699;DHT22;20032;52.436;13.312;2023-04-25T03:21:03;9.00;99.90
33699;DHT22;20032;52.436;13.312;2023-04-25T03:23:28;9.00;99.90
33699;DHT22;20032;52.436;13.312;2023-04-25T03:25:54;9.00;99.90
33699;DHT22;20032;52.436;13.312;2023-04-25T03:28:20;9.00;99.90
33699;DHT22;20032;52.436;13.312;2023-04-25T03:30:45;9.00;99.90
33699;DHT22;20032;52.436;13.312;2023-04-25T03:33:11;9.00;99.90
33699;DHT22;20032;52.436;13.312;2023-04-25T03:35:36;9.10;99.90
33699;DHT22;20032;52.436;13.312;2023-04-25T03:38:02;9.00;99.90
33699;DHT22;20032;52.436;13.312;2023-04-25T03:40:28;9.00;99.90
33699;DHT22;20032;52.436;13.312;2023-04-25T03:42:53;9.00;99.90
33699;DHT22;20032;52.436;13.312;2023-04-25T03:45:19;9.00;99.90
33699;DHT22;20032;52.436;13.312;2023-04-25T03:47:45;9.00;99.90
33699;DHT22;20032;52.436;13.312;2023-04-25T03:50:10;9.00;99.90
33699;DHT22;20032;52.436;13.312;2023-04-25T03:52:36;8.90;99.90
33699;DHT22;20032;52.436;13.312;2023-04-25T03:55:01;8.90;99.90
33699;DHT22;20032;52.436;13.312;2023-04-25T03:57:27;8.90;99.90
33699;DHT22;20032;52.436;13.312;2023-04-25T03:59:52;8.80;99.90
33699;DHT22;20032;52.436;13.312;2023-04-25T04:02:18;8.90;99.90
33699;DHT22;20032;52.436;13.312;2023-04-25T04:04:43;8.90;99.90
33699;DHT22;20032;52.436;13.312;2023-04-25T04:07:09;8.90;99.90
33699;DHT22;20032;52.436;13.312;2023-04-25T04:09:35;8.80;99.90
33699;DHT22;20032;52.436;13.312;2023-04-25T04:12:01;8.80;99.90
33699;DHT22;20032;52.436;13.312;2023-04-25T04:14:27;8.80;99.90
33699;DHT22;20032;52.436;13.312;2023-04-25T04:16:53;8.80;99.90
33699;DHT22;20032;52.436;13.312;2023-04-25T04:19:18;8.90;99.90
33699;DHT22;20032;52.436;13.312;2023-04-25T04:21:44;8.90;99.90
33699;DHT22;20032;52.436;13.312;2023-04-25T04:24:09;8.90;99.90
33699;DHT22;20032;52.436;13.312;2023-04-25T04:26:35;8.90;99.90
33699;DHT22;20032;52.436;13.312;2023-04-25T04:29:02;8.80;99.90
33699;DHT22;20032;52.436;13.312;2023-04-25T04:31:28;8.80;99.90
33699;DHT22;20032;52.436;13.312;2023-04-25T04:33:55;8.80;99.90
33699;DHT22;20032;52.436;13.312;2023-04-25T04:36:20;8.80;99.90
33699;DHT22;20032;52.436;13.312;2023-04-25T04:38:47;8.80;99.90
33699;DHT22;20032;52.436;13.312;2023-04-25T04:41:12;8.90;99.90
33699;DHT22;20032;52.436;13.312;2023-04-25T04:43:38;8.90;99.90
33699;DHT22;20032;52.436;13.312;2023-04-25T04:46:05;9.00;99.90
33699;DHT22;20032;52.436;13.312;2023-04-25T04:48:32;9.00;99.90
33699;DHT22;20032;52.436;13.312;2023-04-25T04:50:59;9.00;99.90
33699;DHT22;20032;52.436;13.312;2023-04-25T04:53:25;9.00;99.90
33699;DHT22;20032;52.436;13.312;2023-04-25T04:55:51;9.10;99.90
33699;DHT22;20032;52.436;13.312;2023-04-25T04:58:16;9.10;99.90
33699;DHT22;20032;52.436;13.312;2023-04-25T05:00:42;9.20;99.90
33699;DHT22;20032;52.436;13.312;2023-04-25T05:03:07;9.20;99.90
33699;DHT22;20032;52.436;13.312;2023-04-25T05:05:34;9.10;99.90
33699;DHT22;20032;52.436;13.312;2023-04-25T05:07:59;9.00;99.90
33699;DHT22;20032;52.436;13.312;2023-04-25T05:10:25;9.00;99.90
33699;DHT22;20032;52.436;13.312;2023-04-25T05:12:50;9.00;99.90
33699;DHT22;20032;52.436;13.312;2023-04-25T05:15:16;9.00;99.90
33699;DHT22;20032;52.436;13.312;2023-04-25T05:17:41;9.00;99.90
33699;DHT22;20032;52.436;13.312;2023-04-25T05:20:08;9.00;99.90
33699;DHT22;20032;52.436;13.312;2023-04-25T05:22:34;9.00;99.90
33699;DHT22;20032;52.436;13.312;2023-04-25T05:25:00;9.00;99.90
33699;DHT22;20032;52.436;13.312;2023-04-25T05:27:26;9.10;99.90
33699;DHT22;20032;52.436;13.312;2023-04-25T05:29:52;9.10;99.90
33699;DHT22;20032;52.436;13.312;2023-04-25T05:32:18;9.10;99.90
33699;DHT22;20032;52.436;13.312;2023-04-25T05:34:44;9.00;99.90
33699;DHT22;20032;52.436;13.312;2023-04-25T05:37:10;8.90;99.90
33699;DHT22;20032;52.436;13.312;2023-04-25T05:39:37;9.00;99.90
33699;DHT22;20032;52.436;13.312;2023-04-25T05:42:04;9.10;99.90
33699;DHT22;20032;52.436;13.312;2023-04-25T05:44:30;9.20;99.90
33699;DHT22;20032;52.436;13.312;2023-04-25T05:46:56;9.20;99.90
33699;DHT22;20032;52.436;13.312;2023-04-25T05:49:22;9.20;99.90
33699;DHT22;20032;52.436;13.312;2023-04-25T05:51:47;9.20;99.90
33699;DHT22;20032;52.436;13.312;2023-04-25T05:54:13;9.10;99.90
33699;DHT22;20032;52.436;13.312;2023-04-25T05:56:40;9.10;99.90
33699;DHT22;20032;52.436;13.312;2023-04-25T05:59:06;9.10;99.90
33699;DHT22;20032;52.436;13.312;2023-04-25T06:01:32;9.20;99.90
33699;DHT22;20032;52.436;13.312;2023-04-25T06:03:57;9.20;99.90
33699;DHT22;20032;52.436;13.312;2023-04-25T06:06:23;9.10;99.90
33699;DHT22;20032;52.436;13.312;2023-04-25T06:08:49;9.10;99.90
33699;DHT22;20032;52.436;13.312;2023-04-25T06:11:14;9.20;99.90
33699;DHT22;20032;52.436;13.312;2023-04-25T06:13:40;9.10;99.90
33699;DHT22;20032;52.436;13.312;2023-04-25T06:16:05;9.20;99.90
33699;DHT22;20032;52.436;13.312;2023-04-25T06:18:31;9.30;99.90
33699;DHT22;20032;52.436;13.312;2023-04-25T06:20:56;9.30;99.90
33699;DHT22;20032;52.436;13.312;2023-04-25T06:23:22;9.30;99.90
33699;DHT22;20032;52.436;13.312;2023-04-25T06:25:47;9.20;99.90
33699;DHT22;20032;52.436;13.312;2023-04-25T06:28:13;9.30;99.90
33699;DHT22;20032;52.436;13.312;2023-04-25T06:30:39;9.20;99.90
33699;DHT22;20032;52.436;13.312;2023-04-25T06:33:06;9.20;99.90
33699;DHT22;20032;52.436;13.312;2023-04-25T06:35:34;9.20;99.90
33699;DHT22;20032;52.436;13.312;2023-04-25T06:38:00;9.20;99.90
33699;DHT22;20032;52.436;13.312;2023-04-25T06:40:25;9.10;99.90
33699;DHT22;20032;52.436;13.312;2023-04-25T06:42:51;9.10;99.90
33699;DHT22;20032;52.436;13.312;2023-04-25T06:45:16;9.20;99.90
33699;DHT22;20032;52.436;13.312;2023-04-25T06:47:42;9.20;99.90
33699;DHT22;20032;52.436;13.312;2023-04-25T06:50:08;9.30;99.90
33699;DHT22;20032;52.436;13.312;2023-04-25T06:52:34;9.30;99.90
33699;DHT22;20032;52.436;13.312;2023-04-25T06:54:59;9.20;99.90
33699;DHT22;20032;52.436;13.312;2023-04-25T06:57:25;9.20;99.90
33699;DHT22;20032;52.436;13.312;2023-04-25T06:59:51;9.20;99.90
33699;DHT22;20032;52.436;13.312;2023-04-25T07:02:16;9.30;99.90
33699;DHT22;20032;52.436;13.312;2023-04-25T07:04:42;9.40;99.90
33699;DHT22;20032;52.436;13.312;2023-04-25T07:07:07;9.30;99.90
33699;DHT22;20032;52.436;13.312;2023-04-25T07:09:33;9.20;99.90
33699;DHT22;20032;52.436;13.312;2023-04-25T07:11:59;9.10;99.90
33699;DHT22;20032;52.436;13.312;2023-04-25T07:14:27;9.00;99.90
33699;DHT22;20032;52.436;13.312;2023-04-25T07:16:53;8.80;99.90
33699;DHT22;20032;52.436;13.312;2023-04-25T07:19:21;8.90;99.90
33699;DHT22;20032;52.436;13.312;2023-04-25T07:21:46;9.00;99.90
33699;DHT22;20032;52.436;13.312;2023-04-25T07:24:12;8.90;99.90
33699;DHT22;20032;52.436;13.312;2023-04-25T07:26:37;8.80;99.90
33699;DHT22;20032;52.436;13.312;2023-04-25T07:29:03;8.60;99.90
33699;DHT22;20032;52.436;13.312;2023-04-25T07:31:28;8.70;99.90
33699;DHT22;20032;52.436;13.312;2023-04-25T07:33:54;8.80;99.90
33699;DHT22;20032;52.436;13.312;2023-04-25T07:36:19;8.80;99.90
33699;DHT22;20032;52.436;13.312;2023-04-25T07:38:45;8.90;99.90
33699;DHT22;20032;52.436;13.312;2023-04-25T07:41:10;9.00;99.90
33699;DHT22;20032;52.436;13.312;2023-04-25T07:43:36;9.10;99.90
33699;DHT22;20032;52.436;13.312;2023-04-25T07:46:01;9.10;99.90
33699;DHT22;20032;52.436;13.312;2023-04-25T07:48:27;9.00;99.90
33699;DHT22;20032;52.436;13.312;2023-04-25T07:50:53;9.10;99.90
33699;DHT22;20032;52.436;13.312;2023-04-25T07:53:18;9.10;99.90
33699;DHT22;20032;52.436;13.312;2023-04-25T07:55:44;9.10;99.90
33699;DHT22;20032;52.436;13.312;2023-04-25T07:58:11;9.10;99.90
33699;DHT22;20032;52.436;13.312;2023-04-25T08:00:36;9.20;99.90
33699;DHT22;20032;52.436;13.312;2023-04-25T08:03:02;9.20;99.90
33699;DHT22;20032;52.436;13.312;2023-04-25T08:05:28;9.20;99.90
33699;DHT22;20032;52.436;13.312;2023-04-25T08:07:53;9.30;99.90
33699;DHT22;20032;52.436;13.312;2023-04-25T08:10:19;9.20;99.90
33699;DHT22;20032;52.436;13.312;2023-04-25T08:12:45;9.30;99.90
33699;DHT22;20032;52.436;13.312;2023-04-25T08:15:11;9.30;99.90
33699;DHT22;20032;52.436;13.312;2023-04-25T08:17:36;9.30;99.90
33699;DHT22;20032;52.436;13.312;2023-04-25T08:20:02;9.40;99.90
33699;DHT22;20032;52.436;13.312;2023-04-25T08:22:31;9.70;99.90
33699;DHT22;20032;52.436;13.312;2023-04-25T08:24:57;10.00;99.90
33699;DHT22;20032;52.436;13.312;2023-04-25T08:27:23;10.20;99.90
33699;DHT22;20032;52.436;13.312;2023-04-25T08:29:49;10.30;99.90
33699;DHT22;20032;52.436;13.312;2023-04-25T08:32:16;10.30;99.90
33699;DHT22;20032;52.436;13.312;2023-04-25T08:34:41;10.30;99.90
33699;DHT22;20032;52.436;13.312;2023-04-25T08:37:09;10.40;99.90
33699;DHT22;20032;52.436;13.312;2023-04-25T08:39:36;10.30;99.90
33699;DHT22;20032;52.436;13.312;2023-04-25T08:42:05;10.20;99.90
33699;DHT22;20032;52.436;13.312;2023-04-25T08:44:34;10.40;99.90
33699;DHT22;20032;52.436;13.312;2023-04-25T08:47:03;10.60;99.90
33699;DHT22;20032;52.436;13.312;2023-04-25T08:49:31;10.70;99.90
33699;DHT22;20032;52.436;13.312;2023-04-25T08:52:00;10.60;99.90
33699;DHT22;20032;52.436;13.312;2023-04-25T08:54:27;10.70;99.90
33699;DHT22;20032;52.436;13.312;2023-04-25T08:56:54;10.50;99.90
33699;DHT22;20032;52.436;13.312;2023-04-25T08:59:21;10.50;99.90
33699;DHT22;20032;52.436;13.312;2023-04-25T09:01:48;10.40;99.90
33699;DHT22;20032;52.436;13.312;2023-04-25T09:04:14;10.60;99.90
33699;DHT22;20032;52.436;13.312;2023-04-25T09:06:40;10.80;99.90
33699;DHT22;20032;52.436;13.312;2023-04-25T09:09:06;11.10;99.90
33699;DHT22;20032;52.436;13.312;2023-04-25T09:11:35;11.40;99.90
33699;DHT22;20032;52.436;13.312;2023-04-25T09:14:20;11.70;99.90
33699;DHT22;20032;52.436;13.312;2023-04-25T09:17:03;11.70;99.90
33699;DHT22;20032;52.436;13.312;2023-04-25T09:19:31;11.50;99.90
33699;DHT22;20032;52.436;13.312;2023-04-25T09:21:58;11.50;99.90
33699;DHT22;20032;52.436;13.312;2023-04-25T09:24:42;11.60;99.90
33699;DHT22;20032;52.436;13.312;2023-04-25T09:27:10;11.80;99.90
33699;DHT22;20032;52.436;13.312;2023-04-25T09:29:38;11.60;99.90
33699;DHT22;20032;52.436;13.312;2023-04-25T09:32:15;11.80;99.90
33699;DHT22;20032;52.436;13.312;2023-04-25T09:34:42;11.80;99.90
33699;DHT22;20032;52.436;13.312;2023-04-25T09:37:09;11.70;99.90
33699;DHT22;20032;52.436;13.312;2023-04-25T09:39:37;11.80;99.90
33699;DHT22;20032;52.436;13.312;2023-04-25T09:42:03;11.80;99.90
33699;DHT22;20032;52.436;13.312;2023-04-25T09:44:29;11.80;99.90
33699;DHT22;20032;52.436;13.312;2023-04-25T09:46:54;11.60;99.90
33699;DHT22;20032;52.436;13.312;2023-04-25T09:49:21;11.50;99.90
33699;DHT22;20032;52.436;13.312;2023-04-25T09:51:57;11.70;99.90
33699;DHT22;20032;52.436;13.312;2023-04-25T09:54:24;12.00;99.90
33699;DHT22;20032;52.436;13.312;2023-04-25T09:56:51;12.10;99.90
33699;DHT22;20032;52.436;13.312;2023-04-25T09:59:20;11.90;99.90
33699;DHT22;20032;52.436;13.312;2023-04-25T10:01:48;11.90;99.90
33699;DHT22;20032;52.436;13.312;2023-04-25T10:04:19;11.60;99.90
33699;DHT22;20032;52.436;13.312;2023-04-25T10:06:47;11.40;99.90
33699;DHT22;20032;52.436;13.312;2023-04-25T10:09:14;11.40;99.90
33699;DHT22;20032;52.436;13.312;2023-04-25T10:11:42;11.30;99.90
33699;DHT22;20032;52.436;13.312;2023-04-25T10:14:08;11.40;99.90
33699;DHT22;20032;52.436;13.312;2023-04-25T10:16:36;11.50;99.90
33699;DHT22;20032;52.436;13.312;2023-04-25T10:19:02;11.40;99.90
33699;DHT22;20032;52.436;13.312;2023-04-25T10:21:28;11.50;99.90
33699;DHT22;20032;52.436;13.312;2023-04-25T10:23:56;11.60;99.90
33699;DHT22;20032;52.436;13.312;2023-04-25T10:26:23;11.50;99.90
33699;DHT22;20032;52.436;13.312;2023-04-25T10:29:04;11.50;99.90
33699;DHT22;20032;52.436;13.312;2023-04-25T10:31:30;11.60;99.90
33699;DHT22;20032;52.436;13.312;2023-04-25T10:33:56;12.10;99.90
33699;DHT22;20032;52.436;13.312;2023-04-25T10:36:23;12.30;99.90
33699;DHT22;20032;52.436;13.312;2023-04-25T10:38:50;12.60;99.90
33699;DHT22;20032;52.436;13.312;2023-04-25T10:41:18;12.30;99.90
33699;DHT22;20032;52.436;13.312;2023-04-25T10:43:45;12.20;99.90
33699;DHT22;20032;52.436;13.312;2023-04-25T10:51:23;11.70;99.90
33699;DHT22;20032;52.436;13.312;2023-04-25T10:53:59;11.70;99.90
33699;DHT22;20032;52.436;13.312;2023-04-25T10:56:27;11.50;99.90
33699;DHT22;20032;52.436;13.312;2023-04-25T10:59:13;11.50;99.90
33699;DHT22;20032;52.436;13.312;2023-04-25T11:01:41;11.60;99.90
33699;DHT22;20032;52.436;13.312;2023-04-25T11:04:21;11.60;99.90
33699;DHT22;20032;52.436;13.312;2023-04-25T11:09:24;11.70;99.90
33699;DHT22;20032;52.436;13.312;2023-04-25T11:11:54;11.50;99.90
33699;DHT22;20032;52.436;13.312;2023-04-25T11:14:20;11.30;99.90
33699;DHT22;20032;52.436;13.312;2023-04-25T11:16:46;11.30;99.90
33699;DHT22;20032;52.436;13.312;2023-04-25T11:19:11;11.40;99.90
33699;DHT22;20032;52.436;13.312;2023-04-25T11:21:37;11.30;99.90
33699;DHT22;20032;52.436;13.312;2023-04-25T11:24:02;11.00;99.90
33699;DHT22;20032;52.436;13.312;2023-04-25T11:26:28;10.90;99.90
33699;DHT22;20032;52.436;13.312;2023-04-25T11:28:59;10.90;99.90
33699;DHT22;20032;52.436;13.312;2023-04-25T11:31:25;10.90;99.90
33699;DHT22;20032;52.436;13.312;2023-04-25T11:33:53;10.90;99.90
33699;DHT22;20032;52.436;13.312;2023-04-25T11:36:20;10.80;99.90
33699;DHT22;20032;52.436;13.312;2023-04-25T11:38:45;10.80;99.90
33699;DHT22;20032;52.436;13.312;2023-04-25T11:41:11;10.70;99.30
33699;DHT22;20032;52.436;13.312;2023-04-25T11:43:37;10.60;99.50
33699;DHT22;20032;52.436;13.312;2023-04-25T11:46:06;10.70;99.10
33699;DHT22;20032;52.436;13.312;2023-04-25T11:48:41;10.70;99.10
33699;DHT22;20032;52.436;13.312;2023-04-25T11:51:07;10.80;98.90
33699;DHT22;20032;52.436;13.312;2023-04-25T11:53:33;10.90;98.80
33699;DHT22;20032;52.436;13.312;2023-04-25T11:55:58;10.90;99.00
33699;DHT22;20032;52.436;13.312;2023-04-25T11:58:25;10.90;98.60
33699;DHT22;20032;52.436;13.312;2023-04-25T12:00:50;11.00;99.10
33699;DHT22;20032;52.436;13.312;2023-04-25T12:03:18;11.00;99.30
33699;DHT22;20032;52.436;13.312;2023-04-25T12:05:44;11.00;99.30
33699;DHT22;20032;52.436;13.312;2023-04-25T12:08:12;11.00;99.30
33699;DHT22;20032;52.436;13.312;2023-04-25T12:10:39;10.90;99.70
33699;DHT22;20032;52.436;13.312;2023-04-25T12:13:23;11.00;99.90
33699;DHT22;20032;52.436;13.312;2023-04-25T12:15:48;11.00;99.90
33699;DHT22;20032;52.436;13.312;2023-04-25T12:18:14;11.20;99.90
33699;DHT22;20032;52.436;13.312;2023-04-25T12:20:41;11.30;99.90
33699;DHT22;20032;52.436;13.312;2023-04-25T12:23:06;11.30;99.20
33699;DHT22;20032;52.436;13.312;2023-04-25T12:25:42;11.30;97.70
33699;DHT22;20032;52.436;13.312;2023-04-25T12:28:18;11.20;98.10
33699;DHT22;20032;52.436;13.312;2023-04-25T12:31:05;11.20;97.70
33699;DHT22;20032;52.436;13.312;2023-04-25T12:33:33;11.40;98.00
33699;DHT22;20032;52.436;13.312;2023-04-25T12:36:02;11.60;97.60
33699;DHT22;20032;52.436;13.312;2023-04-25T12:38:36;11.90;98.30
33699;DHT22;20032;52.436;13.312;2023-04-25T12:41:02;11.90;97.70
33699;DHT22;20032;52.436;13.312;2023-04-25T12:43:27;12.00;97.80
33699;DHT22;20032;52.436;13.312;2023-04-25T12:45:55;12.20;97.90
33699;DHT22;20032;52.436;13.312;2023-04-25T12:48:21;12.10;97.50
33699;DHT22;20032;52.436;13.312;2023-04-25T12:50:48;12.00;97.60
33699;DHT22;20032;52.436;13.312;2023-04-25T12:53:17;11.80;98.40
33699;DHT22;20032;52.436;13.312;2023-04-25T12:55:43;11.70;98.90
33699;DHT22;20032;52.436;13.312;2023-04-25T12:58:11;11.60;98.40
33699;DHT22;20032;52.436;13.312;2023-04-25T13:00:36;11.20;98.30
33699;DHT22;20032;52.436;13.312;2023-04-25T13:03:02;10.90;99.10
33699;DHT22;20032;52.436;13.312;2023-04-25T13:05:28;11.00;98.70
33699;DHT22;20032;52.436;13.312;2023-04-25T13:07:55;11.00;98.90
33699;DHT22;20032;52.436;13.312;2023-04-25T13:10:21;10.90;98.70
33699;DHT22;20032;52.436;13.312;2023-04-25T13:12:46;10.90;98.60
33699;DHT22;20032;52.436;13.312;2023-04-25T13:15:12;10.90;99.30
33699;DHT22;20032;52.436;13.312;2023-04-25T13:17:38;11.10;99.20
33699;DHT22;20032;52.436;13.312;2023-04-25T13:20:05;11.40;99.60
33699;DHT22;20032;52.436;13.312;2023-04-25T13:22:34;12.30;98.50
33699;DHT22;20032;52.436;13.312;2023-04-25T13:25:02;12.80;96.60
33699;DHT22;20032;52.436;13.312;2023-04-25T13:27:29;13.50;96.60
33699;DHT22;20032;52.436;13.312;2023-04-25T13:29:55;13.80;95.40
33699;DHT22;20032;52.436;13.312;2023-04-25T13:32:21;13.80;95.30
33699;DHT22;20032;52.436;13.312;2023-04-25T13:34:46;13.50;95.20
33699;DHT22;20032;52.436;13.312;2023-04-25T13:37:12;12.80;95.60
33699;DHT22;20032;52.436;13.312;2023-04-25T13:39:37;12.50;96.40
33699;DHT22;20032;52.436;13.312;2023-04-25T13:42:03;12.30;96.30
33699;DHT22;20032;52.436;13.312;2023-04-25T13:44:28;12.20;96.90
33699;DHT22;20032;52.436;13.312;2023-04-25T13:46:54;12.20;96.90
33699;DHT22;20032;52.436;13.312;2023-04-25T13:49:19;12.00;97.30
33699;DHT22;20032;52.436;13.312;2023-04-25T13:51:45;11.90;97.70
33699;DHT22;20032;52.436;13.312;2023-04-25T13:54:11;12.00;98.00
33699;DHT22;20032;52.436;13.312;2023-04-25T13:56:36;11.60;97.90
33699;DHT22;20032;52.436;13.312;2023-04-25T13:59:02;11.40;98.10
33699;DHT22;20032;52.436;13.312;2023-04-25T14:01:28;11.30;98.60
33699;DHT22;20032;52.436;13.312;2023-04-25T14:03:55;11.10;99.10
33699;DHT22;20032;52.436;13.312;2023-04-25T14:06:21;11.20;99.80
33699;DHT22;20032;52.436;13.312;2023-04-25T14:08:49;11.10;99.10
33699;DHT22;20032;52.436;13.312;2023-04-25T14:11:15;10.90;99.40
33699;DHT22;20032;52.436;13.312;2023-04-25T14:13:43;10.80;99.90
33699;DHT22;20032;52.436;13.312;2023-04-25T14:16:09;10.90;99.90
33699;DHT22;20032;52.436;13.312;2023-04-25T14:18:34;10.90;99.90
33699;DHT22;20032;52.436;13.312;2023-04-25T14:21:00;10.90;99.90
33699;DHT22;20032;52.436;13.312;2023-04-25T14:23:26;11.00;99.30
33699;DHT22;20032;52.436;13.312;2023-04-25T14:25:51;10.90;99.50
33699;DHT22;20032;52.436;13.312;2023-04-25T14:28:17;10.70;99.90
33699;DHT22;20032;52.436;13.312;2023-04-25T14:30:42;10.50;99.90
33699;DHT22;20032;52.436;13.312;2023-04-25T14:33:08;10.40;99.90
33699;DHT22;20032;52.436;13.312;2023-04-25T14:35:34;10.40;99.90
33699;DHT22;20032;52.436;13.312;2023-04-25T14:38:00;10.40;99.90
33699;DHT22;20032;52.436;13.312;2023-04-25T14:40:25;10.50;99.90
33699;DHT22;20032;52.436;13.312;2023-04-25T14:42:51;10.50;99.90
33699;DHT22;20032;52.436;13.312;2023-04-25T14:45:17;10.40;99.90
33699;DHT22;20032;52.436;13.312;2023-04-25T14:47:43;10.40;99.90
33699;DHT22;20032;52.436;13.312;2023-04-25T14:50:09;10.40;99.90
33699;DHT22;20032;52.436;13.312;2023-04-25T14:52:35;10.60;99.90
33699;DHT22;20032;52.436;13.312;2023-04-25T14:55:00;10.70;99.90
33699;DHT22;20032;52.436;13.312;2023-04-25T14:57:30;11.20;99.90
33699;DHT22;20032;52.436;13.312;2023-04-25T14:59:56;11.30;99.90
33699;DHT22;20032;52.436;13.312;2023-04-25T15:02:23;11.00;99.90
33699;DHT22;20032;52.436;13.312;2023-04-25T15:04:48;11.00;99.90
33699;DHT22;20032;52.436;13.312;2023-04-25T15:07:14;11.00;99.90
33699;DHT22;20032;52.436;13.312;2023-04-25T15:09:40;10.90;99.90
33699;DHT22;20032;52.436;13.312;2023-04-25T15:12:05;11.00;99.90
33699;DHT22;20032;52.436;13.312;2023-04-25T15:14:31;10.90;99.90
33699;DHT22;20032;52.436;13.312;2023-04-25T15:16:57;10.50;99.90
33699;DHT22;20032;52.436;13.312;2023-04-25T15:19:22;10.40;99.90
33699;DHT22;20032;52.436;13.312;2023-04-25T15:21:48;10.40;99.90
33699;DHT22;20032;52.436;13.312;2023-04-25T15:24:14;10.40;99.90
33699;DHT22;20032;52.436;13.312;2023-04-25T15:26:40;10.50;99.90
33699;DHT22;20032;52.436;13.312;2023-04-25T15:29:06;10.60;99.90